Time,TemperatureF,DewpointF,PressureIn,WindDirection,WindDirectionDegrees,WindSpeedMPH,WindSpeedGustMPH,Humidity,HourlyPrecipIn,Conditions,Clouds,dailyrainin,SolarRadiationWatts/m^2,SoftwareType,DateUTC
2013-05-29 00:05:00,64.8,61.5,23.10,SE,140,5.0,7.0,89,0.00,,,0.49,1004,Wunderground v.1.15,2013-05-29 05:05:00,
2013-05-29 00:11:00,65.1,61.8,23.10,SSE,150,6.0,7.0,89,0.00,,,0.00,1005,Wunderground v.1.15,2013-05-29 05:11:00,
2013-05-29 00:17:00,65.1,61.5,23.10,SE,142,6.0,7.0,88,0.00,,,0.00,1016,Wunderground v.1.15,2013-05-29 05:17:00,
2013-05-29 00:23:00,65.0,61.4,23.11,SE,136,6.0,9.0,88,0.00,,,0.00,1002,Wunderground v.1.15,2013-05-29 05:23:00,
2013-05-29 00:29:00,64.8,61.5,23.11,SE,126,5.0,6.0,89,0.00,,,0.00,1000,Wunderground v.1.15,2013-05-29 05:29:00,
2013-05-29 00:35:00,64.7,61.7,23.11,ESE,115,4.0,6.0,90,0.00,,,0.00,1004,Wunderground v.1.15,2013-05-29 05:35:00,
2013-05-29 00:41:00,64.5,61.5,23.12,ESE,111,5.0,7.0,90,0.00,,,0.00,1004,Wunderground v.1.15,2013-05-29 05:41:00,
2013-05-29 00:47:00,64.4,61.7,23.12,ESE,112,7.0,9.0,91,0.00,,,0.00,991,Wunderground v.1.15,2013-05-29 05:47:00,
2013-05-29 00:53:00,64.4,61.7,23.13,ESE,123,7.0,8.0,91,0.00,,,0.00,997,Wunderground v.1.15,2013-05-29 05:53:00,
2013-05-29 00:59:00,64.6,61.9,23.13,SE,126,7.0,11.0,91,0.00,,,0.00,1011,Wunderground v.1.15,2013-05-29 05:59:00,
2013-05-29 01:05:00,65.0,62.3,23.13,SE,129,10.0,11.0,91,0.00,,,0.00,1016,Wunderground v.1.15,2013-05-29 06:05:00,
2013-05-29 01:11:00,65.1,62.4,23.14,SE,132,11.0,15.0,91,0.00,,,0.00,1013,Wunderground v.1.15,2013-05-29 06:11:00,
2013-05-29 01:17:00,65.3,62.6,23.14,SE,126,12.0,15.0,91,0.00,,,0.00,1023,Wunderground v.1.15,2013-05-29 06:17:00,
2013-05-29 01:23:00,65.5,62.8,23.14,SE,126,13.0,13.0,91,0.00,,,0.00,1049,Wunderground v.1.15,2013-05-29 06:23:00,
2013-05-29 01:29:00,65.6,63.2,23.14,ESE,120,12.0,13.0,92,0.00,,,0.00,1042,Wunderground v.1.15,2013-05-29 06:29:00,
2013-05-29 01:35:00,65.9,63.5,23.15,ESE,123,13.0,16.0,92,0.00,,,0.00,1041,Wunderground v.1.15,2013-05-29 06:35:00,
2013-05-29 01:41:00,66.1,63.4,23.15,ESE,121,13.0,16.0,91,0.00,,,0.00,1055,Wunderground v.1.15,2013-05-29 06:41:00,
2013-05-29 01:47:00,66.4,64.0,23.15,ESE,117,14.0,17.0,92,0.00,,,0.00,1039,Wunderground v.1.15,2013-05-29 06:47:00,
2013-05-29 01:52:00,66.6,64.2,23.16,SE,129,15.0,15.0,92,0.00,,,0.00,1069,Wunderground v.1.15,2013-05-29 06:52:00,
2013-05-29 01:58:00,66.8,64.1,23.16,SE,126,15.0,15.0,91,0.00,,,0.00,1063,Wunderground v.1.15,2013-05-29 06:58:00,
2013-05-29 02:05:00,66.9,64.2,23.16,SE,131,16.0,19.0,91,0.00,,,0.00,1071,Wunderground v.1.15,2013-05-29 07:05:00,
2013-05-29 02:11:00,67.0,64.3,23.16,ESE,117,16.0,19.0,91,0.00,,,0.00,1079,Wunderground v.1.15,2013-05-29 07:11:00,
2013-05-29 02:17:00,67.0,64.6,23.17,ESE,121,16.0,19.0,92,0.00,,,0.00,1074,Wunderground v.1.15,2013-05-29 07:17:00,
2013-05-29 02:23:00,66.9,64.5,23.17,SE,128,15.0,16.0,92,0.00,,,0.00,1071,Wunderground v.1.15,2013-05-29 07:23:00,
2013-05-29 02:29:00,66.8,64.4,23.17,SE,131,16.0,18.0,92,0.00,,,0.00,1072,Wunderground v.1.15,2013-05-29 07:29:00,
2013-05-29 02:35:00,66.8,64.4,23.17,SE,125,16.0,18.0,92,0.00,,,0.00,1076,Wunderground v.1.15,2013-05-29 07:35:00,
2013-05-29 02:41:00,66.9,64.5,23.17,ESE,123,15.0,18.0,92,0.00,,,0.00,1074,Wunderground v.1.15,2013-05-29 07:41:00,
2013-05-29 02:47:00,66.9,64.5,23.17,SE,126,16.0,18.0,92,0.00,,,0.00,1071,Wunderground v.1.15,2013-05-29 07:47:00,
2013-05-29 02:52:00,66.9,64.5,23.18,SE,135,16.0,16.0,92,0.00,,,0.00,1083,Wunderground v.1.15,2013-05-29 07:52:00,
2013-05-29 02:58:00,66.9,64.5,23.18,SE,137,15.0,16.0,92,0.00,,,0.00,1072,Wunderground v.1.15,2013-05-29 07:58:00,
2013-05-29 03:05:00,67.0,64.6,23.18,SE,136,14.0,23.0,92,0.00,,,0.00,1071,Wunderground v.1.15,2013-05-29 08:05:00,
2013-05-29 03:11:00,67.0,64.6,23.18,SE,138,14.0,16.0,92,0.00,,,0.00,1067,Wunderground v.1.15,2013-05-29 08:11:00,
2013-05-29 03:17:00,67.1,64.7,23.19,SE,136,12.0,16.0,92,0.00,,,0.00,1078,Wunderground v.1.15,2013-05-29 08:17:00,
2013-05-29 03:23:00,67.1,64.7,23.19,SSE,153,12.0,15.0,92,0.00,,,0.00,1067,Wunderground v.1.15,2013-05-29 08:23:00,
2013-05-29 03:29:00,67.2,64.8,23.19,SE,139,11.0,12.0,92,0.00,,,0.00,1078,Wunderground v.1.15,2013-05-29 08:29:00,
2013-05-29 03:35:00,67.4,65.0,23.19,SE,136,11.0,13.0,92,0.00,,,0.00,1085,Wunderground v.1.15,2013-05-29 08:35:00,
2013-05-29 03:41:00,67.4,65.0,23.19,SE,137,11.0,12.0,92,0.00,,,0.00,1088,Wunderground v.1.15,2013-05-29 08:41:00,
2013-05-29 03:47:00,67.5,65.1,23.20,SE,137,10.0,15.0,92,0.00,,,0.00,1090,Wunderground v.1.15,2013-05-29 08:47:00,
2013-05-29 03:52:00,67.5,65.1,23.20,SE,130,10.0,14.0,92,0.00,,,0.00,1102,Wunderground v.1.15,2013-05-29 08:52:00,
2013-05-29 03:59:00,67.5,65.1,23.20,SE,131,10.0,10.0,92,0.00,,,0.00,1092,Wunderground v.1.15,2013-05-29 08:59:00,
2013-05-29 04:05:00,67.4,65.0,23.20,SE,130,11.0,24.0,92,0.00,,,0.00,1085,Wunderground v.1.15,2013-05-29 09:05:00,
2013-05-29 04:11:00,67.4,65.0,23.20,SE,146,10.0,11.0,92,0.00,,,0.00,1079,Wunderground v.1.15,2013-05-29 09:11:00,
2013-05-29 04:17:00,67.5,65.1,23.20,SE,136,10.0,12.0,92,0.00,,,0.00,1088,Wunderground v.1.15,2013-05-29 09:17:00,
2013-05-29 04:23:00,67.5,65.1,23.20,SE,140,10.0,12.0,92,0.00,,,0.00,1081,Wunderground v.1.15,2013-05-29 09:23:00,
2013-05-29 04:29:00,67.5,65.1,23.20,SE,146,10.0,11.0,92,0.00,,,0.00,1081,Wunderground v.1.15,2013-05-29 09:29:00,
2013-05-29 04:35:00,67.5,65.1,23.20,SE,134,10.0,13.0,92,0.00,,,0.00,1076,Wunderground v.1.15,2013-05-29 09:35:00,
2013-05-29 04:40:00,67.4,65.0,23.20,SE,128,10.0,10.0,92,0.00,,,0.00,1074,Wunderground v.1.15,2013-05-29 09:40:00,
2013-05-29 04:47:00,67.3,64.9,23.20,ESE,119,10.0,10.0,92,0.00,,,0.00,1081,Wunderground v.1.15,2013-05-29 09:47:00,
2013-05-29 04:53:00,67.2,64.8,23.20,ESE,117,9.0,12.0,92,0.00,,,0.00,1069,Wunderground v.1.15,2013-05-29 09:53:00,
2013-05-29 04:59:00,67.0,64.6,23.20,ESE,119,9.0,10.0,92,0.00,,,0.00,1060,Wunderground v.1.15,2013-05-29 09:59:00,
2013-05-29 05:05:00,66.9,64.8,23.21,ESE,113,9.0,20.0,93,0.00,,,0.00,1065,Wunderground v.1.15,2013-05-29 10:05:00,
2013-05-29 05:11:00,66.8,64.7,23.21,ESE,107,8.0,10.0,93,0.00,,,0.00,1049,Wunderground v.1.15,2013-05-29 10:11:00,
2013-05-29 05:17:00,66.6,64.5,23.21,ESE,113,8.0,11.0,93,0.00,,,0.00,1035,Wunderground v.1.15,2013-05-29 10:17:00,
2013-05-29 05:23:00,66.5,64.4,23.21,ESE,121,9.0,10.0,93,0.00,,,0.00,1016,Wunderground v.1.15,2013-05-29 10:23:00,
2013-05-29 05:29:00,66.5,64.4,23.21,SE,125,10.0,10.0,93,0.00,,,0.00,1002,Wunderground v.1.15,2013-05-29 10:29:00,
2013-05-29 05:35:00,66.3,64.2,23.21,SE,125,10.0,10.0,93,0.00,,,0.00,974,Wunderground v.1.15,2013-05-29 10:35:00,
2013-05-29 05:41:00,66.3,64.2,23.21,ESE,117,10.0,10.0,93,0.00,,,0.00,970,Wunderground v.1.15,2013-05-29 10:41:00,
2013-05-29 05:47:00,66.3,64.2,23.21,ESE,118,9.0,10.0,93,0.00,,,0.00,939,Wunderground v.1.15,2013-05-29 10:47:00,
2013-05-29 05:53:00,66.2,64.1,23.22,ESE,108,9.0,10.0,93,0.00,,,0.00,923,Wunderground v.1.15,2013-05-29 10:53:00,
2013-05-29 05:59:00,66.2,64.4,23.22,ESE,103,9.0,9.0,94,0.00,,,0.00,921,Wunderground v.1.15,2013-05-29 10:59:00,
2013-05-29 06:05:00,66.2,64.4,23.22,ESE,115,10.0,15.0,94,0.00,,,0.00,895,Wunderground v.1.15,2013-05-29 11:05:00,
2013-05-29 06:10:00,66.2,64.4,23.22,SE,124,11.0,15.0,94,0.00,,,0.00,874,Wunderground v.1.15,2013-05-29 11:10:00,
2013-05-29 06:17:00,66.2,64.4,23.22,ESE,112,11.0,15.0,94,0.00,,,0.00,856,Wunderground v.1.15,2013-05-29 11:17:00,
2013-05-29 06:23:00,66.3,64.5,23.22,ESE,105,10.0,11.0,94,0.00,,,0.00,860,Wunderground v.1.15,2013-05-29 11:23:00,
2013-05-29 06:29:00,66.4,64.6,23.22,SE,130,11.0,13.0,94,0.00,,,0.00,861,Wunderground v.1.15,2013-05-29 11:29:00,
2013-05-29 06:35:00,66.5,64.4,23.22,ESE,118,10.0,13.0,93,0.00,,,0.00,851,Wunderground v.1.15,2013-05-29 11:35:00,
2013-05-29 06:41:00,66.6,64.8,23.22,ESE,103,9.0,9.0,94,0.00,,,0.00,854,Wunderground v.1.15,2013-05-29 11:41:00,
2013-05-29 06:47:00,66.7,64.6,23.22,ESE,119,10.0,14.0,93,0.00,,,0.00,858,Wunderground v.1.15,2013-05-29 11:47:00,
2013-05-29 06:53:00,66.8,64.7,23.23,SE,135,12.0,15.0,93,0.00,,,0.00,837,Wunderground v.1.15,2013-05-29 11:53:00,
2013-05-29 06:59:00,66.8,64.7,23.23,ESE,110,13.0,14.0,93,0.00,,,0.00,833,Wunderground v.1.15,2013-05-29 11:59:00,
2013-05-29 07:05:00,66.8,64.7,23.23,SE,137,12.0,15.0,93,0.00,,,0.00,833,Wunderground v.1.15,2013-05-29 12:05:00,
2013-05-29 07:10:00,66.9,64.8,23.23,SE,137,12.0,15.0,93,0.00,,,0.00,819,Wunderground v.1.15,2013-05-29 12:10:00,
2013-05-29 07:17:00,67.0,64.9,23.23,SE,137,10.0,15.0,93,0.00,,,0.00,816,Wunderground v.1.15,2013-05-29 12:17:00,
2013-05-29 07:23:00,67.0,64.9,23.23,SE,137,8.0,11.0,93,0.00,,,0.00,814,Wunderground v.1.15,2013-05-29 12:23:00,
2013-05-29 07:29:00,67.0,64.9,23.23,SE,135,9.0,10.0,93,0.00,,,0.00,835,Wunderground v.1.15,2013-05-29 12:29:00,
2013-05-29 07:35:00,67.1,65.0,23.22,SE,130,10.0,12.0,93,0.00,,,0.00,828,Wunderground v.1.15,2013-05-29 12:35:00,
2013-05-29 07:41:00,67.1,65.0,23.22,ESE,123,10.0,11.0,93,0.00,,,0.00,865,Wunderground v.1.15,2013-05-29 12:41:00,
2013-05-29 07:47:00,67.2,65.1,23.21,SE,141,9.0,11.0,93,0.00,,,0.00,853,Wunderground v.1.15,2013-05-29 12:47:00,
2013-05-29 07:53:00,67.2,65.1,23.20,SE,138,9.0,18.0,93,0.00,,,0.00,824,Wunderground v.1.15,2013-05-29 12:53:00,
2013-05-29 07:59:00,67.4,65.0,23.19,SSE,148,12.0,12.0,92,0.00,,,0.00,809,Wunderground v.1.15,2013-05-29 12:59:00,
2013-05-29 08:05:00,67.5,65.1,23.19,SE,134,11.0,18.0,92,0.00,,,0.00,793,Wunderground v.1.15,2013-05-29 13:05:00,
2013-05-29 08:10:00,67.4,65.0,23.19,SE,133,11.0,18.0,92,0.00,,,0.00,810,Wunderground v.1.15,2013-05-29 13:10:00,
2013-05-29 08:17:00,67.4,65.0,23.19,ESE,115,10.0,18.0,92,0.00,,,0.00,810,Wunderground v.1.15,2013-05-29 13:17:00,
2013-05-29 08:23:00,67.4,65.3,23.19,SE,133,9.0,11.0,93,0.00,,,0.00,809,Wunderground v.1.15,2013-05-29 13:23:00,
2013-05-29 08:29:00,67.6,65.5,23.18,SE,126,10.0,12.0,93,0.00,,,0.00,802,Wunderground v.1.15,2013-05-29 13:29:00,
2013-05-29 08:35:00,67.8,65.4,23.17,SSE,154,11.0,12.0,92,0.00,,,0.00,826,Wunderground v.1.15,2013-05-29 13:35:00,
2013-05-29 08:41:00,67.8,65.4,23.18,SSE,157,10.0,11.0,92,0.00,,,0.00,824,Wunderground v.1.15,2013-05-29 13:41:00,
2013-05-29 08:47:00,67.9,65.5,23.18,SSE,161,8.0,11.0,92,0.00,,,0.00,814,Wunderground v.1.15,2013-05-29 13:47:00,
2013-05-29 08:53:00,68.0,65.6,23.18,SSE,154,8.0,11.0,92,0.00,,,0.00,810,Wunderground v.1.15,2013-05-29 13:53:00,
2013-05-29 08:59:00,68.0,65.6,23.17,SE,145,8.0,8.0,92,0.00,,,0.00,803,Wunderground v.1.15,2013-05-29 13:59:00,
2013-05-29 09:05:00,68.1,65.7,23.16,SSE,148,8.0,19.0,92,0.00,,,0.00,812,Wunderground v.1.15,2013-05-29 14:05:00,
2013-05-29 09:10:00,68.2,65.8,23.16,South,174,8.0,8.0,92,0.00,,,0.00,821,Wunderground v.1.15,2013-05-29 14:10:00,
2013-05-29 09:17:00,68.3,65.6,23.16,South,176,8.0,12.0,91,0.00,,,0.00,819,Wunderground v.1.15,2013-05-29 14:17:00,
2013-05-29 09:23:00,68.4,66.0,23.17,SSW,207,9.0,9.0,92,0.00,,,0.00,817,Wunderground v.1.15,2013-05-29 14:23:00,
2013-05-29 09:28:00,68.4,65.7,23.16,South,178,8.0,8.0,91,0.00,,,0.00,828,Wunderground v.1.15,2013-05-29 14:28:00,
2013-05-29 09:35:00,68.5,65.8,23.15,SSW,202,7.0,8.0,91,0.00,,,0.00,814,Wunderground v.1.15,2013-05-29 14:35:00,
2013-05-29 09:41:00,68.7,65.6,23.15,South,176,7.0,8.0,90,0.00,,,0.00,814,Wunderground v.1.15,2013-05-29 14:41:00,
2013-05-29 09:47:00,68.8,65.7,23.14,South,181,8.0,11.0,90,0.00,,,0.00,800,Wunderground v.1.15,2013-05-29 14:47:00,
2013-05-29 09:53:00,68.9,65.8,23.15,South,175,10.0,12.0,90,0.00,,,0.00,807,Wunderground v.1.15,2013-05-29 14:53:00,
2013-05-29 09:59:00,69.1,66.0,23.15,SSE,159,11.0,13.0,90,0.00,,,0.00,814,Wunderground v.1.15,2013-05-29 14:59:00,
2013-05-29 10:05:00,69.5,66.1,23.15,SSE,167,13.0,24.0,89,0.00,,,0.00,810,Wunderground v.1.15,2013-05-29 15:05:00,
2013-05-29 10:11:00,69.9,66.2,23.15,SSE,154,15.0,16.0,88,0.00,,,0.00,814,Wunderground v.1.15,2013-05-29 15:11:00,
2013-05-29 10:17:00,70.4,66.7,23.14,SE,144,15.0,18.0,88,0.00,,,0.00,877,Wunderground v.1.15,2013-05-29 15:17:00,
2013-05-29 10:22:00,70.3,66.6,23.14,SSE,159,14.0,20.0,88,0.00,,,0.00,854,Wunderground v.1.15,2013-05-29 15:22:00,
2013-05-29 10:29:00,70.2,66.5,23.14,SSE,148,13.0,13.0,88,0.00,,,0.00,856,Wunderground v.1.15,2013-05-29 15:29:00,
2013-05-29 10:35:00,70.4,67.0,23.14,SE,145,12.0,15.0,89,0.00,,,0.00,842,Wunderground v.1.15,2013-05-29 15:35:00,
2013-05-29 10:40:00,70.6,67.2,23.14,SSE,157,12.0,13.0,89,0.00,,,0.00,831,Wunderground v.1.15,2013-05-29 15:40:00,
2013-05-29 10:47:00,71.2,67.8,23.13,SE,140,12.0,17.0,89,0.00,,,0.00,874,Wunderground v.1.15,2013-05-29 15:47:00,
2013-05-29 10:53:00,71.5,67.4,23.13,SSE,161,13.0,15.0,87,0.00,,,0.00,909,Wunderground v.1.15,2013-05-29 15:53:00,
2013-05-29 10:59:00,71.9,67.5,23.13,SSE,152,13.0,13.0,86,0.00,,,0.00,912,Wunderground v.1.15,2013-05-29 15:59:00,
2013-05-29 11:05:00,71.9,67.1,23.14,SE,132,12.0,25.0,85,0.00,,,0.00,904,Wunderground v.1.15,2013-05-29 16:05:00,
2013-05-29 11:11:00,71.5,66.8,23.14,ESE,119,12.0,15.0,85,0.00,,,0.00,962,Wunderground v.1.15,2013-05-29 16:11:00,
2013-05-29 11:17:00,70.9,66.8,23.14,SE,132,13.0,15.0,87,0.00,,,0.00,877,Wunderground v.1.15,2013-05-29 16:17:00,
2013-05-29 11:23:00,70.8,66.7,23.14,SE,136,12.0,14.0,87,0.00,,,0.00,856,Wunderground v.1.15,2013-05-29 16:23:00,
2013-05-29 11:29:00,70.8,66.7,23.13,SSE,153,13.0,13.0,87,0.00,,,0.00,867,Wunderground v.1.15,2013-05-29 16:29:00,
2013-05-29 11:35:00,71.3,67.9,23.13,SE,137,13.0,14.0,89,0.00,,,0.00,831,Wunderground v.1.15,2013-05-29 16:35:00,
2013-05-29 11:41:00,71.8,68.1,23.13,SE,136,13.0,19.0,88,0.00,,,0.00,874,Wunderground v.1.15,2013-05-29 16:41:00,
2013-05-29 11:47:00,72.4,68.0,23.13,ESE,105,14.0,19.0,86,0.00,,,0.00,909,Wunderground v.1.15,2013-05-29 16:47:00,
2013-05-29 11:53:00,72.9,68.5,23.12,ESE,119,13.0,14.0,86,0.00,,,0.00,944,Wunderground v.1.15,2013-05-29 16:53:00,
2013-05-29 11:58:00,73.6,68.5,23.11,SE,136,14.0,14.0,84,0.00,,,0.00,942,Wunderground v.1.15,2013-05-29 16:58:00,
2013-05-29 12:05:00,74.2,69.1,23.11,SE,136,14.0,22.0,84,0.00,,,0.00,986,Wunderground v.1.15,2013-05-29 17:05:00,
2013-05-29 12:11:00,74.2,68.3,23.12,SE,130,15.0,22.0,82,0.00,,,0.00,967,Wunderground v.1.15,2013-05-29 17:11:00,
2013-05-29 12:17:00,73.9,68.1,23.12,SE,125,16.0,22.0,82,0.00,,,0.00,981,Wunderground v.1.15,2013-05-29 17:17:00,
2013-05-29 12:23:00,73.7,67.9,23.11,SE,124,15.0,16.0,82,0.00,,,0.00,979,Wunderground v.1.15,2013-05-29 17:23:00,
2013-05-29 12:29:00,73.2,67.4,23.11,SE,134,15.0,17.0,82,0.00,,,0.00,942,Wunderground v.1.15,2013-05-29 17:29:00,
2013-05-29 12:35:00,72.4,66.9,23.11,ESE,119,16.0,19.0,83,0.00,,,0.00,928,Wunderground v.1.15,2013-05-29 17:35:00,
2013-05-29 12:40:00,72.2,67.1,23.11,SE,136,15.0,17.0,84,0.00,,,0.00,891,Wunderground v.1.15,2013-05-29 17:40:00,
2013-05-29 12:47:00,72.2,66.7,23.10,SE,139,14.0,17.0,83,0.00,,,0.00,895,Wunderground v.1.15,2013-05-29 17:47:00,
2013-05-29 12:52:00,72.3,67.2,23.10,SSE,148,14.0,19.0,84,0.00,,,0.00,909,Wunderground v.1.15,2013-05-29 17:52:00,
2013-05-29 12:59:00,72.5,67.4,23.10,SE,128,13.0,13.0,84,0.00,,,0.00,916,Wunderground v.1.15,2013-05-29 17:59:00,
2013-05-29 13:05:00,72.3,66.8,23.11,SE,130,13.0,21.0,83,0.00,,,0.00,914,Wunderground v.1.15,2013-05-29 18:05:00,
2013-05-29 13:11:00,72.3,67.2,23.11,SSE,148,12.0,12.0,84,0.00,,,0.00,909,Wunderground v.1.15,2013-05-29 18:11:00,
2013-05-29 13:17:00,72.5,67.4,23.10,SE,142,12.0,14.0,84,0.00,,,0.00,907,Wunderground v.1.15,2013-05-29 18:17:00,
2013-05-29 13:23:00,72.5,67.7,23.10,SSE,157,13.0,14.0,85,0.00,,,0.00,888,Wunderground v.1.15,2013-05-29 18:23:00,
2013-05-29 13:28:00,72.7,67.9,23.10,SSE,159,12.0,12.0,85,0.00,,,0.00,905,Wunderground v.1.15,2013-05-29 18:28:00,
2013-05-29 13:37:00,73.0,68.2,23.10,SSE,159,12.0,12.0,85,0.00,,,0.00,933,Wunderground v.1.15,2013-05-29 18:37:00,
2013-05-29 13:43:00,72.9,68.1,23.09,SE,145,11.0,14.0,85,0.00,,,0.00,935,Wunderground v.1.15,2013-05-29 18:43:00,
2013-05-29 13:49:00,72.9,68.5,23.08,SE,143,12.0,15.0,86,0.00,,,0.00,912,Wunderground v.1.15,2013-05-29 18:49:00,
2013-05-29 13:55:00,74.0,69.9,23.08,ESE,116,15.0,18.0,87,0.00,,,0.00,905,Wunderground v.1.15,2013-05-29 18:55:00,
2013-05-29 14:01:00,74.6,69.4,23.08,SE,132,17.0,17.0,84,0.00,,,0.00,958,Wunderground v.1.15,2013-05-29 19:01:00,
2013-05-29 14:07:00,75.1,68.9,23.08,SSE,147,18.0,23.0,81,0.00,,,0.00,1016,Wunderground v.1.15,2013-05-29 19:07:00,
2013-05-29 14:13:00,75.2,69.3,23.08,SE,130,17.0,18.0,82,0.00,,,0.00,1027,Wunderground v.1.15,2013-05-29 19:13:00,
2013-05-29 14:19:00,75.7,70.2,23.07,South,170,16.0,16.0,83,0.00,,,0.00,991,Wunderground v.1.15,2013-05-29 19:19:00,
2013-05-29 14:25:00,75.8,69.6,23.08,SSE,153,16.0,21.0,81,0.00,,,0.00,1020,Wunderground v.1.15,2013-05-29 19:25:00,
2013-05-29 14:31:00,75.7,69.1,23.07,SSE,152,16.0,17.0,80,0.00,,,0.00,1020,Wunderground v.1.15,2013-05-29 19:31:00,
2013-05-29 14:37:00,75.6,69.0,23.06,SSE,163,15.0,18.0,80,0.00,,,0.00,997,Wunderground v.1.15,2013-05-29 19:37:00,
2013-05-29 14:43:00,75.4,69.2,23.06,SSE,155,14.0,17.0,81,0.00,,,0.00,990,Wunderground v.1.15,2013-05-29 19:43:00,
2013-05-29 14:49:00,74.8,68.6,23.06,SE,138,14.0,19.0,81,0.00,,,0.00,984,Wunderground v.1.15,2013-05-29 19:49:00,
2013-05-29 14:55:00,74.6,69.1,23.06,SSE,150,14.0,19.0,83,0.00,,,0.00,940,Wunderground v.1.15,2013-05-29 19:55:00,
2013-05-29 15:01:00,74.8,69.3,23.05,SSE,157,14.0,25.0,83,0.00,,,0.00,951,Wunderground v.1.15,2013-05-29 20:01:00,
2013-05-29 15:07:00,75.2,69.0,23.04,SSE,148,13.0,25.0,81,0.00,,,0.00,986,Wunderground v.1.15,2013-05-29 20:07:00,
2013-05-29 15:13:00,75.3,69.4,23.03,SE,126,13.0,25.0,82,0.00,,,0.00,986,Wunderground v.1.15,2013-05-29 20:13:00,
2013-05-29 15:19:00,75.3,69.1,23.02,SE,141,15.0,15.0,81,0.00,,,0.00,977,Wunderground v.1.15,2013-05-29 20:19:00,
2013-05-29 15:25:00,74.9,69.0,23.01,SE,143,16.0,18.0,82,0.00,,,0.00,974,Wunderground v.1.15,2013-05-29 20:25:00,
2013-05-29 15:31:00,74.5,69.0,23.01,SE,130,16.0,16.0,83,0.00,,,0.00,981,Wunderground v.1.15,2013-05-29 20:31:00,
2013-05-29 15:37:00,73.3,68.5,23.00,ESE,116,14.0,16.0,85,0.00,,,0.00,974,Wunderground v.1.15,2013-05-29 20:37:00,
2013-05-29 15:42:00,72.8,68.4,22.98,ESE,103,14.0,14.0,86,0.00,,,0.00,940,Wunderground v.1.15,2013-05-29 20:42:00,
2013-05-29 15:48:00,72.2,68.4,22.98,SE,130,13.0,13.0,88,0.00,,,0.00,891,Wunderground v.1.15,2013-05-29 20:48:00,
2013-05-29 15:55:00,72.4,69.0,22.97,East,101,15.0,16.0,89,0.00,,,0.01,872,Wunderground v.1.15,2013-05-29 20:55:00,
2013-05-29 16:01:00,72.7,69.3,22.97,ESE,113,15.0,26.0,89,0.00,,,0.01,879,Wunderground v.1.15,2013-05-29 21:01:00,
2013-05-29 16:07:00,73.0,69.2,22.97,SE,129,14.0,26.0,88,0.00,,,0.01,896,Wunderground v.1.15,2013-05-29 21:07:00,
2013-05-29 16:13:00,73.3,69.2,22.97,East,101,14.0,14.0,87,0.00,,,0.01,909,Wunderground v.1.15,2013-05-29 21:13:00,
2013-05-29 16:19:00,73.4,69.0,22.97,East,98,15.0,17.0,86,0.00,,,0.01,909,Wunderground v.1.15,2013-05-29 21:19:00,
2013-05-29 16:25:00,73.5,69.1,22.97,ESE,110,14.0,17.0,86,0.00,,,0.01,942,Wunderground v.1.15,2013-05-29 21:25:00,
2013-05-29 16:31:00,73.6,69.5,22.97,ESE,111,13.0,14.0,87,0.00,,,0.01,939,Wunderground v.1.15,2013-05-29 21:31:00,
2013-05-29 16:37:00,73.8,69.3,22.97,East,101,13.0,18.0,86,0.00,,,0.01,949,Wunderground v.1.15,2013-05-29 21:37:00,
2013-05-29 16:42:00,73.9,69.1,22.98,ESE,109,15.0,17.0,85,0.00,,,0.01,960,Wunderground v.1.15,2013-05-29 21:42:00,
2013-05-29 16:48:00,73.8,69.3,22.98,East,101,15.0,15.0,86,0.00,,,0.01,967,Wunderground v.1.15,2013-05-29 21:48:00,
2013-05-29 16:55:00,73.7,69.2,22.98,ESE,114,15.0,17.0,86,0.00,,,0.01,1035,Wunderground v.1.15,2013-05-29 21:55:00,
2013-05-29 17:01:00,73.3,69.2,22.99,SE,140,15.0,22.0,87,0.00,,,0.01,1032,Wunderground v.1.15,2013-05-29 22:01:00,
2013-05-29 17:11:00,72.5,69.1,22.99,ESE,118,12.0,13.0,89,0.00,,,0.02,1007,Wunderground v.1.15,2013-05-29 22:11:00,
2013-05-29 17:17:00,72.2,68.8,22.99,East,100,9.0,13.0,89,1.30,,,0.08,1014,Wunderground v.1.15,2013-05-29 22:17:00,
2013-05-29 17:23:00,71.8,68.7,22.99,ESE,107,7.0,8.0,90,0.17,,,0.10,998,Wunderground v.1.15,2013-05-29 22:23:00,
2013-05-29 17:29:00,71.7,68.9,22.99,East,85,4.0,7.0,91,0.47,,,0.13,990,Wunderground v.1.15,2013-05-29 22:29:00,
2013-05-29 17:35:00,71.2,68.4,22.99,SSE,157,6.0,10.0,91,0.26,,,0.24,979,Wunderground v.1.15,2013-05-29 22:35:00,
2013-05-29 17:41:00,69.9,66.5,23.00,SSE,167,12.0,27.0,89,2.74,,,0.28,942,Wunderground v.1.15,2013-05-29 22:41:00,
2013-05-29 17:47:00,66.8,63.1,22.99,SE,143,19.0,27.0,88,0.36,,,0.50,844,Wunderground v.1.15,2013-05-29 22:47:00,
2013-05-29 17:55:00,65.3,62.6,22.99,SSE,148,23.0,28.0,91,0.18,,,0.52,807,Wunderground v.1.15,2013-05-29 22:55:00,
2013-05-29 18:01:00,65.3,62.9,23.01,SE,134,18.0,21.0,92,0.12,,,0.53,807,Wunderground v.1.15,2013-05-29 23:01:00,
2013-05-29 18:07:00,66.2,64.4,23.04,SE,136,16.0,21.0,94,0.12,,,0.55,830,Wunderground v.1.15,2013-05-29 23:07:00,
2013-05-29 18:13:00,66.6,64.2,23.05,ESE,119,16.0,17.0,92,0.11,,,0.55,837,Wunderground v.1.15,2013-05-29 23:13:00,
2013-05-29 18:19:00,66.7,64.0,23.06,ESE,118,15.0,17.0,91,0.06,,,0.56,846,Wunderground v.1.15,2013-05-29 23:19:00,
2013-05-29 18:25:00,66.2,63.8,23.06,SE,137,18.0,24.0,92,2.55,,,0.63,847,Wunderground v.1.15,2013-05-29 23:25:00,
2013-05-29 18:31:00,65.5,62.8,23.07,SSW,192,20.0,25.0,91,0.66,,,0.79,835,Wunderground v.1.15,2013-05-29 23:31:00,
2013-05-29 18:37:00,64.2,61.5,23.07,SSW,195,20.0,25.0,91,0.39,,,0.88,817,Wunderground v.1.15,2013-05-29 23:37:00,
2013-05-29 18:43:00,63.3,60.6,23.07,SSW,208,16.0,20.0,91,0.35,,,0.91,791,Wunderground v.1.15,2013-05-29 23:43:00,
2013-05-29 18:49:00,63.0,60.3,23.07,South,180,13.0,13.0,91,0.13,,,0.92,772,Wunderground v.1.15,2013-05-29 23:49:00,
2013-05-29 18:55:00,63.2,60.2,23.07,SE,128,10.0,15.0,90,0.07,,,0.92,751,Wunderground v.1.15,2013-05-29 23:55:00,
2013-05-29 19:01:00,63.4,60.1,23.06,East,82,6.0,37.0,89,0.04,,,0.92,745,Wunderground v.1.15,2013-05-30 00:01:00,
2013-05-29 19:07:00,63.8,59.9,23.07,East,79,3.0,37.0,87,0.00,,,0.92,745,Wunderground v.1.15,2013-05-30 00:07:00,
2013-05-29 19:13:00,64.0,60.1,23.08,South,169,1.0,4.0,87,0.00,,,0.92,742,Wunderground v.1.15,2013-05-30 00:13:00,
2013-05-29 19:19:00,66.3,59.9,23.08,SSW,192,7.0,20.0,80,0.00,,,0.93,735,Wunderground v.1.15,2013-05-30 00:19:00,
2013-05-29 19:25:00,68.6,60.4,23.08,South,181,12.0,20.0,75,0.00,,,0.93,744,Wunderground v.1.15,2013-05-30 00:25:00,
2013-05-29 19:31:00,68.6,60.0,23.08,SE,141,9.0,11.0,74,0.00,,,0.93,759,Wunderground v.1.15,2013-05-30 00:31:00,
2013-05-29 19:37:00,68.1,60.2,23.08,ESE,119,11.0,14.0,76,0.00,,,0.93,765,Wunderground v.1.15,2013-05-30 00:37:00,
2013-05-29 19:43:00,67.0,60.3,23.08,ESE,109,12.0,13.0,79,0.00,,,0.93,772,Wunderground v.1.15,2013-05-30 00:43:00,
2013-05-29 19:49:00,66.2,60.5,23.08,East,97,12.0,12.0,82,0.00,,,0.93,766,Wunderground v.1.15,2013-05-30 00:49:00,
2013-05-29 19:55:00,65.6,60.3,23.09,East,95,12.0,13.0,83,0.00,,,0.93,770,Wunderground v.1.15,2013-05-30 00:55:00,
2013-05-29 20:01:00,65.1,60.5,23.09,East,94,10.0,29.0,85,0.00,,,0.93,770,Wunderground v.1.15,2013-05-30 01:01:00,
2013-05-29 20:07:00,65.1,60.1,23.09,NE,36,7.0,29.0,84,0.00,,,0.93,772,Wunderground v.1.15,2013-05-30 01:07:00,
2013-05-29 20:13:00,65.3,60.7,23.10,NNW,345,9.0,29.0,85,0.00,,,0.93,773,Wunderground v.1.15,2013-05-30 01:13:00,
2013-05-29 20:19:00,65.4,60.8,23.11,ESE,123,8.0,8.0,85,0.00,,,0.93,779,Wunderground v.1.15,2013-05-30 01:19:00,
2013-05-29 20:25:00,65.8,60.5,23.11,South,188,4.0,8.0,83,0.00,,,0.93,789,Wunderground v.1.15,2013-05-30 01:25:00,
2013-05-29 20:31:00,66.6,60.6,23.11,SSW,198,4.0,6.0,81,0.00,,,0.93,809,Wunderground v.1.15,2013-05-30 01:31:00,
2013-05-29 20:37:00,67.4,60.7,23.11,SW,232,7.0,11.0,79,0.00,,,0.94,831,Wunderground v.1.15,2013-05-30 01:37:00,
2013-05-29 20:42:00,67.4,61.0,23.11,SW,219,8.0,8.0,80,0.00,,,0.94,858,Wunderground v.1.15,2013-05-30 01:42:00,
2013-05-29 20:48:00,67.0,61.0,23.10,SW,225,9.0,11.0,81,0.00,,,0.94,891,Wunderground v.1.15,2013-05-30 01:48:00,
2013-05-29 20:55:00,66.5,60.8,23.11,SSW,200,11.0,11.0,82,0.00,,,0.94,914,Wunderground v.1.15,2013-05-30 01:55:00,
2013-05-29 21:00:00,66.3,61.0,23.12,SSW,192,13.0,22.0,83,0.00,,,0.95,916,Wunderground v.1.15,2013-05-30 02:00:00,
2013-05-29 21:07:00,65.7,60.7,23.15,SW,219,19.0,24.0,84,0.11,,,0.96,916,Wunderground v.1.15,2013-05-30 02:07:00,
2013-05-29 21:13:00,65.4,61.1,23.15,SSW,206,21.0,22.0,86,0.07,,,0.96,925,Wunderground v.1.15,2013-05-30 02:13:00,
2013-05-29 21:19:00,65.1,61.1,23.14,SSE,148,17.0,17.0,87,0.07,,,0.97,937,Wunderground v.1.15,2013-05-30 02:19:00,
2013-05-29 21:25:00,64.7,61.1,23.12,SE,136,13.0,17.0,88,0.11,,,0.99,937,Wunderground v.1.15,2013-05-30 02:25:00,
2013-05-29 21:31:00,64.3,61.3,23.11,SE,128,12.0,12.0,90,0.09,,,0.99,944,Wunderground v.1.15,2013-05-30 02:31:00,
2013-05-29 21:37:00,63.7,60.7,23.10,SE,138,10.0,15.0,90,0.05,,,0.99,946,Wunderground v.1.15,2013-05-30 02:37:00,
2013-05-29 21:43:00,63.3,60.3,23.09,SE,129,11.0,12.0,90,0.00,,,0.99,939,Wunderground v.1.15,2013-05-30 02:43:00,
2013-05-29 21:49:00,63.1,60.1,23.09,SE,141,11.0,11.0,90,0.00,,,0.99,930,Wunderground v.1.15,2013-05-30 02:49:00,
2013-05-29 21:55:00,62.9,59.9,23.09,SE,133,7.0,11.0,90,0.00,,,0.99,928,Wunderground v.1.15,2013-05-30 02:55:00,
2013-05-29 22:01:00,62.8,60.1,23.08,SE,129,6.0,7.0,91,0.00,,,0.99,930,Wunderground v.1.15,2013-05-30 03:01:00,
2013-05-29 22:09:00,62.6,59.9,23.08,ESE,119,8.0,10.0,91,0.00,,,0.99,928,Wunderground v.1.15,2013-05-30 03:09:00,
2013-05-29 22:15:00,62.6,59.9,23.08,SE,128,7.0,10.0,91,0.00,,,0.99,935,Wunderground v.1.15,2013-05-30 03:15:00,
2013-05-29 22:21:00,62.5,59.8,23.07,East,98,4.0,6.0,91,0.00,,,0.99,935,Wunderground v.1.15,2013-05-30 03:21:00,
2013-05-29 22:27:00,62.3,59.9,23.07,ESE,103,6.0,9.0,92,0.00,,,0.99,937,Wunderground v.1.15,2013-05-30 03:27:00,
2013-05-29 22:33:00,62.2,59.8,23.06,East,84,8.0,11.0,92,0.00,,,0.99,933,Wunderground v.1.15,2013-05-30 03:33:00,
2013-05-29 22:38:00,62.2,59.8,23.06,ESE,106,7.0,7.0,92,0.00,,,0.99,932,Wunderground v.1.15,2013-05-30 03:38:00,
2013-05-29 22:45:00,62.1,59.7,23.06,ESE,123,5.0,9.0,92,2.40,,,1.19,939,Wunderground v.1.15,2013-05-30 03:45:00,
2013-05-29 22:51:00,61.7,59.7,23.05,East,99,6.0,9.0,93,0.13,,,1.21,937,Wunderground v.1.15,2013-05-30 03:51:00,
2013-05-29 22:57:00,61.5,59.8,23.05,East,92,8.0,11.0,94,0.42,,,1.24,932,Wunderground v.1.15,2013-05-30 03:57:00,
2013-05-29 23:01:00,61.4,59.7,23.05,ESE,107,10.0,14.0,94,0.20,,,1.25,930,Wunderground v.1.15,2013-05-30 04:01:00,
2013-05-29 23:03:00,61.5,59.8,23.05,East,95,11.0,29.0,94,0.12,,,1.25,935,Wunderground v.1.15,2013-05-30 04:03:00,
2013-05-29 23:05:00,61.5,59.8,23.05,ESE,106,12.0,29.0,94,0.08,,,1.25,932,Wunderground v.1.15,2013-05-30 04:05:00,
2013-05-29 23:11:00,61.6,59.9,23.05,SSE,151,13.0,29.0,94,0.05,,,1.25,928,Wunderground v.1.15,2013-05-30 04:11:00,
2013-05-29 23:13:00,61.6,59.9,23.06,SE,130,12.0,29.0,94,0.04,,,1.25,930,Wunderground v.1.15,2013-05-30 04:13:00,
2013-05-29 23:19:00,61.7,60.0,23.07,SW,235,12.0,14.0,94,0.04,,,1.26,937,Wunderground v.1.15,2013-05-30 04:19:00,
2013-05-29 23:25:00,61.8,60.1,23.08,WSW,245,12.0,15.0,94,0.16,,,1.28,939,Wunderground v.1.15,2013-05-30 04:25:00,
2013-05-29 23:31:00,61.8,60.4,23.09,WSW,258,13.0,15.0,95,0.10,,,1.29,942,Wunderground v.1.15,2013-05-30 04:31:00,
2013-05-29 23:37:00,61.7,60.3,23.10,WNW,282,12.0,15.0,95,0.11,,,1.30,944,Wunderground v.1.15,2013-05-30 04:37:00,
2013-05-29 23:43:00,60.9,58.9,23.11,West,280,10.0,12.0,93,0.07,,,1.30,930,Wunderground v.1.15,2013-05-30 04:43:00,
2013-05-29 23:49:00,61.0,58.0,23.12,WNW,286,9.0,9.0,90,0.04,,,1.30,905,Wunderground v.1.15,2013-05-30 04:49:00,
2013-05-29 23:55:00,60.9,57.6,23.13,WNW,288,10.0,11.0,89,0.00,,,1.30,904,Wunderground v.1.15,2013-05-30 04:55:00,